sensor_id;sensor_type;location;lat;lon;timestamp;P1;durP1;ratioP1;P2;durP2;ratioP2
66272;SDS011;58450;52.150;4.466;2022-09-04T00:01:41;6.88;;;3.90;;
66272;SDS011;58450;52.150;4.466;2022-09-04T00:04:22;5.43;;;3.40;;
66272;SDS011;58450;52.150;4.466;2022-09-04T00:07:02;6.50;;;3.90;;
66272;SDS011;58450;52.150;4.466;2022-09-04T00:09:40;5.43;;;3.75;;
66272;SDS011;58450;52.150;4.466;2022-09-04T00:12:20;6.35;;;4.05;;
66272;SDS011;58450;52.150;4.466;2022-09-04T00:14:56;5.50;;;3.78;;
66272;SDS011;58450;52.150;4.466;2022-09-04T00:17:35;4.85;;;3.70;;
66272;SDS011;58450;52.150;4.466;2022-09-04T00:20:24;5.72;;;4.00;;
66272;SDS011;58450;52.150;4.466;2022-09-04T00:23:04;5.70;;;4.03;;
66272;SDS011;58450;52.150;4.466;2022-09-04T00:25:45;6.80;;;4.30;;
66272;SDS011;58450;52.150;4.466;2022-09-04T00:28:25;6.18;;;4.25;;
66272;SDS011;58450;52.150;4.466;2022-09-04T00:31:03;6.03;;;4.00;;
66272;SDS011;58450;52.150;4.466;2022-09-04T00:33:45;5.60;;;4.10;;
66272;SDS011;58450;52.150;4.466;2022-09-04T00:36:24;5.47;;;4.13;;
66272;SDS011;58450;52.150;4.466;2022-09-04T00:38:56;6.38;;;4.40;;
66272;SDS011;58450;52.150;4.466;2022-09-04T00:41:36;5.70;;;4.18;;
66272;SDS011;58450;52.150;4.466;2022-09-04T00:47:28;6.22;;;4.22;;
66272;SDS011;58450;52.150;4.466;2022-09-04T00:50:25;6.38;;;4.00;;
66272;SDS011;58450;52.150;4.466;2022-09-04T00:53:16;6.43;;;4.30;;
66272;SDS011;58450;52.150;4.466;2022-09-04T00:56:11;6.47;;;4.65;;
66272;SDS011;58450;52.150;4.466;2022-09-04T00:59:05;6.20;;;4.78;;
66272;SDS011;58450;52.150;4.466;2022-09-04T01:04:28;6.47;;;4.78;;
66272;SDS011;58450;52.150;4.466;2022-09-04T01:07:10;5.35;;;4.13;;
66272;SDS011;58450;52.150;4.466;2022-09-04T01:10:18;7.50;;;4.80;;
66272;SDS011;58450;52.150;4.466;2022-09-04T01:13:02;6.65;;;4.90;;
66272;SDS011;58450;52.150;4.466;2022-09-04T01:15:43;6.85;;;4.70;;
66272;SDS011;58450;52.150;4.466;2022-09-04T01:18:20;7.35;;;4.93;;
66272;SDS011;58450;52.150;4.466;2022-09-04T01:21:03;7.80;;;5.20;;
66272;SDS011;58450;52.150;4.466;2022-09-04T01:27:33;7.43;;;5.38;;
66272;SDS011;58450;52.150;4.466;2022-09-04T01:30:15;7.15;;;5.25;;
66272;SDS011;58450;52.150;4.466;2022-09-04T01:32:55;7.57;;;5.47;;
66272;SDS011;58450;52.150;4.466;2022-09-04T01:35:33;8.23;;;5.90;;
66272;SDS011;58450;52.150;4.466;2022-09-04T01:38:16;8.50;;;6.00;;
66272;SDS011;58450;52.150;4.466;2022-09-04T01:40:52;7.80;;;5.75;;
66272;SDS011;58450;52.150;4.466;2022-09-04T01:43:30;7.60;;;5.82;;
66272;SDS011;58450;52.150;4.466;2022-09-04T01:46:04;7.57;;;6.15;;
66272;SDS011;58450;52.150;4.466;2022-09-04T01:49:01;8.10;;;6.25;;
66272;SDS011;58450;52.150;4.466;2022-09-04T01:51:39;9.20;;;7.28;;
66272;SDS011;58450;52.150;4.466;2022-09-04T01:54:21;12.38;;;7.15;;
66272;SDS011;58450;52.150;4.466;2022-09-04T01:57:04;9.07;;;7.22;;
66272;SDS011;58450;52.150;4.466;2022-09-04T01:59:47;9.95;;;7.18;;
66272;SDS011;58450;52.150;4.466;2022-09-04T02:02:32;8.23;;;6.68;;
66272;SDS011;58450;52.150;4.466;2022-09-04T02:05:15;9.77;;;7.35;;
66272;SDS011;58450;52.150;4.466;2022-09-04T02:07:53;10.68;;;7.82;;
66272;SDS011;58450;52.150;4.466;2022-09-04T02:10:47;10.55;;;7.65;;
66272;SDS011;58450;52.150;4.466;2022-09-04T02:13:27;10.15;;;7.85;;
66272;SDS011;58450;52.150;4.466;2022-09-04T02:16:14;13.57;;;8.80;;
66272;SDS011;58450;52.150;4.466;2022-09-04T02:18:52;9.95;;;7.35;;
66272;SDS011;58450;52.150;4.466;2022-09-04T02:21:39;9.93;;;7.40;;
66272;SDS011;58450;52.150;4.466;2022-09-04T02:24:15;9.05;;;6.82;;
66272;SDS011;58450;52.150;4.466;2022-09-04T02:26:57;9.00;;;7.22;;
66272;SDS011;58450;52.150;4.466;2022-09-04T02:29:32;8.52;;;6.63;;
66272;SDS011;58450;52.150;4.466;2022-09-04T02:32:14;10.70;;;7.07;;
66272;SDS011;58450;52.150;4.466;2022-09-04T02:34:51;9.75;;;7.57;;
66272;SDS011;58450;52.150;4.466;2022-09-04T02:37:30;10.05;;;7.47;;
66272;SDS011;58450;52.150;4.466;2022-09-04T02:40:13;9.90;;;7.60;;
66272;SDS011;58450;52.150;4.466;2022-09-04T02:42:51;8.52;;;6.80;;
66272;SDS011;58450;52.150;4.466;2022-09-04T02:45:41;12.13;;;7.60;;
66272;SDS011;58450;52.150;4.466;2022-09-04T02:48:21;9.95;;;7.38;;
66272;SDS011;58450;52.150;4.466;2022-09-04T02:51:07;10.02;;;7.53;;
66272;SDS011;58450;52.150;4.466;2022-09-04T02:53:51;11.35;;;7.38;;
66272;SDS011;58450;52.150;4.466;2022-09-04T02:56:32;8.90;;;6.85;;
66272;SDS011;58450;52.150;4.466;2022-09-04T02:59:18;9.73;;;7.40;;
66272;SDS011;58450;52.150;4.466;2022-09-04T03:02:02;10.70;;;8.02;;
66272;SDS011;58450;52.150;4.466;2022-09-04T03:04:34;9.50;;;7.10;;
66272;SDS011;58450;52.150;4.466;2022-09-04T03:07:17;9.18;;;7.10;;
66272;SDS011;58450;52.150;4.466;2022-09-04T03:09:53;9.55;;;7.05;;
66272;SDS011;58450;52.150;4.466;2022-09-04T03:12:31;9.38;;;7.40;;
66272;SDS011;58450;52.150;4.466;2022-09-04T03:15:08;10.60;;;7.43;;
66272;SDS011;58450;52.150;4.466;2022-09-04T03:17:50;10.85;;;7.72;;
66272;SDS011;58450;52.150;4.466;2022-09-04T03:20:30;9.63;;;7.30;;
66272;SDS011;58450;52.150;4.466;2022-09-04T03:23:06;9.52;;;7.20;;
66272;SDS011;58450;52.150;4.466;2022-09-04T03:25:55;10.20;;;7.85;;
66272;SDS011;58450;52.150;4.466;2022-09-04T03:31:20;11.40;;;7.78;;
66272;SDS011;58450;52.150;4.466;2022-09-04T03:34:06;10.43;;;8.02;;
66272;SDS011;58450;52.150;4.466;2022-09-04T03:37:11;11.27;;;7.40;;
66272;SDS011;58450;52.150;4.466;2022-09-04T03:40:01;10.57;;;7.55;;
66272;SDS011;58450;52.150;4.466;2022-09-04T03:42:48;10.70;;;7.63;;
66272;SDS011;58450;52.150;4.466;2022-09-04T03:45:38;9.63;;;7.22;;
66272;SDS011;58450;52.150;4.466;2022-09-04T03:48:21;9.30;;;7.55;;
66272;SDS011;58450;52.150;4.466;2022-09-04T03:51:10;10.30;;;7.70;;
66272;SDS011;58450;52.150;4.466;2022-09-04T03:53:54;9.10;;;7.32;;
66272;SDS011;58450;52.150;4.466;2022-09-04T03:56:43;9.50;;;7.18;;
66272;SDS011;58450;52.150;4.466;2022-09-04T03:59:45;10.90;;;8.00;;
66272;SDS011;58450;52.150;4.466;2022-09-04T04:02:32;10.73;;;7.80;;
66272;SDS011;58450;52.150;4.466;2022-09-04T04:05:24;12.23;;;8.30;;
66272;SDS011;58450;52.150;4.466;2022-09-04T04:08:11;10.93;;;7.63;;
66272;SDS011;58450;52.150;4.466;2022-09-04T04:11:31;10.02;;;7.05;;
66272;SDS011;58450;52.150;4.466;2022-09-04T04:14:28;11.52;;;7.57;;
66272;SDS011;58450;52.150;4.466;2022-09-04T04:17:20;10.48;;;7.97;;
66272;SDS011;58450;52.150;4.466;2022-09-04T04:20:16;10.52;;;8.00;;
66272;SDS011;58450;52.150;4.466;2022-09-04T04:22:58;10.73;;;8.07;;
66272;SDS011;58450;52.150;4.466;2022-09-04T04:25:55;9.63;;;7.38;;
66272;SDS011;58450;52.150;4.466;2022-09-04T04:31:49;9.50;;;7.60;;
66272;SDS011;58450;52.150;4.466;2022-09-04T04:34:45;10.00;;;7.57;;
66272;SDS011;58450;52.150;4.466;2022-09-04T04:37:36;10.70;;;8.60;;
66272;SDS011;58450;52.150;4.466;2022-09-04T04:40:23;11.02;;;8.60;;
66272;SDS011;58450;52.150;4.466;2022-09-04T04:43:07;10.68;;;8.15;;
66272;SDS011;58450;52.150;4.466;2022-09-04T04:45:48;11.10;;;8.15;;
66272;SDS011;58450;52.150;4.466;2022-09-04T04:48:33;10.88;;;8.45;;
66272;SDS011;58450;52.150;4.466;2022-09-04T04:54:41;11.32;;;8.82;;
66272;SDS011;58450;52.150;4.466;2022-09-04T04:57:26;11.75;;;9.65;;
66272;SDS011;58450;52.150;4.466;2022-09-04T05:00:07;11.63;;;8.82;;
66272;SDS011;58450;52.150;4.466;2022-09-04T05:02:47;11.93;;;9.02;;
66272;SDS011;58450;52.150;4.466;2022-09-04T05:05:45;12.88;;;9.65;;
66272;SDS011;58450;52.150;4.466;2022-09-04T05:08:35;11.68;;;9.00;;
66272;SDS011;58450;52.150;4.466;2022-09-04T05:11:15;11.90;;;9.38;;
66272;SDS011;58450;52.150;4.466;2022-09-04T05:13:59;11.95;;;9.32;;
66272;SDS011;58450;52.150;4.466;2022-09-04T05:16:44;14.32;;;10.55;;
66272;SDS011;58450;52.150;4.466;2022-09-04T05:19:25;12.07;;;10.07;;
66272;SDS011;58450;52.150;4.466;2022-09-04T05:22:03;12.32;;;9.93;;
66272;SDS011;58450;52.150;4.466;2022-09-04T05:24:43;12.90;;;10.13;;
66272;SDS011;58450;52.150;4.466;2022-09-04T05:27:40;11.95;;;9.55;;
66272;SDS011;58450;52.150;4.466;2022-09-04T05:30:17;11.02;;;9.10;;
66272;SDS011;58450;52.150;4.466;2022-09-04T05:32:57;11.60;;;9.07;;
66272;SDS011;58450;52.150;4.466;2022-09-04T05:35:35;12.93;;;9.77;;
66272;SDS011;58450;52.150;4.466;2022-09-04T05:38:15;11.70;;;9.23;;
66272;SDS011;58450;52.150;4.466;2022-09-04T05:40:57;11.40;;;9.05;;
66272;SDS011;58450;52.150;4.466;2022-09-04T05:43:35;10.73;;;9.02;;
66272;SDS011;58450;52.150;4.466;2022-09-04T05:46:27;11.20;;;8.80;;
66272;SDS011;58450;52.150;4.466;2022-09-04T05:49:11;10.57;;;8.70;;
66272;SDS011;58450;52.150;4.466;2022-09-04T05:52:02;13.02;;;9.82;;
66272;SDS011;58450;52.150;4.466;2022-09-04T05:58:26;11.13;;;8.43;;
66272;SDS011;58450;52.150;4.466;2022-09-04T06:01:17;10.27;;;8.32;;
66272;SDS011;58450;52.150;4.466;2022-09-04T06:04:20;10.82;;;8.43;;
66272;SDS011;58450;52.150;4.466;2022-09-04T06:07:28;11.10;;;9.15;;
66272;SDS011;58450;52.150;4.466;2022-09-04T06:10:04;10.35;;;8.02;;
66272;SDS011;58450;52.150;4.466;2022-09-04T06:12:53;10.68;;;8.55;;
66272;SDS011;58450;52.150;4.466;2022-09-04T06:16:00;11.55;;;8.75;;
66272;SDS011;58450;52.150;4.466;2022-09-04T06:19:01;12.00;;;9.00;;
66272;SDS011;58450;52.150;4.466;2022-09-04T06:25:10;10.95;;;8.35;;
66272;SDS011;58450;52.150;4.466;2022-09-04T06:28:05;11.23;;;8.77;;
66272;SDS011;58450;52.150;4.466;2022-09-04T06:30:55;11.35;;;8.57;;
66272;SDS011;58450;52.150;4.466;2022-09-04T06:42:46;10.38;;;8.20;;
66272;SDS011;58450;52.150;4.466;2022-09-04T06:45:34;11.00;;;8.23;;
66272;SDS011;58450;52.150;4.466;2022-09-04T06:48:17;9.63;;;7.97;;
66272;SDS011;58450;52.150;4.466;2022-09-04T06:51:03;9.85;;;8.10;;
66272;SDS011;58450;52.150;4.466;2022-09-04T06:53:53;10.25;;;8.02;;
66272;SDS011;58450;52.150;4.466;2022-09-04T06:56:44;10.15;;;8.13;;
66272;SDS011;58450;52.150;4.466;2022-09-04T06:59:43;10.30;;;8.10;;
66272;SDS011;58450;52.150;4.466;2022-09-04T07:02:39;10.18;;;7.55;;
66272;SDS011;58450;52.150;4.466;2022-09-04T07:05:40;9.40;;;7.78;;
66272;SDS011;58450;52.150;4.466;2022-09-04T07:08:20;10.07;;;8.48;;
66272;SDS011;58450;52.150;4.466;2022-09-04T07:11:09;10.77;;;8.10;;
66272;SDS011;58450;52.150;4.466;2022-09-04T07:14:01;11.70;;;8.40;;
66272;SDS011;58450;52.150;4.466;2022-09-04T07:16:49;10.27;;;7.47;;
66272;SDS011;58450;52.150;4.466;2022-09-04T07:19:41;9.18;;;7.20;;
66272;SDS011;58450;52.150;4.466;2022-09-04T07:22:29;8.30;;;6.65;;
66272;SDS011;58450;52.150;4.466;2022-09-04T07:25:18;9.50;;;7.20;;
66272;SDS011;58450;52.150;4.466;2022-09-04T07:28:00;7.43;;;6.15;;
66272;SDS011;58450;52.150;4.466;2022-09-04T07:30:43;7.47;;;6.03;;
66272;SDS011;58450;52.150;4.466;2022-09-04T07:33:20;8.82;;;6.45;;
66272;SDS011;58450;52.150;4.466;2022-09-04T07:35:58;7.82;;;6.18;;
66272;SDS011;58450;52.150;4.466;2022-09-04T07:38:41;8.55;;;7.45;;
66272;SDS011;58450;52.150;4.466;2022-09-04T07:41:20;9.98;;;7.47;;
66272;SDS011;58450;52.150;4.466;2022-09-04T07:43:58;9.02;;;6.95;;
66272;SDS011;58450;52.150;4.466;2022-09-04T07:46:38;7.95;;;5.63;;
66272;SDS011;58450;52.150;4.466;2022-09-04T07:49:16;7.70;;;5.50;;
66272;SDS011;58450;52.150;4.466;2022-09-04T07:51:57;8.18;;;5.90;;
66272;SDS011;58450;52.150;4.466;2022-09-04T07:54:46;7.32;;;5.28;;
66272;SDS011;58450;52.150;4.466;2022-09-04T08:00:48;6.15;;;4.22;;
66272;SDS011;58450;52.150;4.466;2022-09-04T08:03:43;7.65;;;5.40;;
66272;SDS011;58450;52.150;4.466;2022-09-04T08:06:36;6.80;;;4.75;;
66272;SDS011;58450;52.150;4.466;2022-09-04T08:09:19;7.38;;;5.32;;
66272;SDS011;58450;52.150;4.466;2022-09-04T08:12:37;6.32;;;4.82;;
66272;SDS011;58450;52.150;4.466;2022-09-04T08:15:27;6.70;;;4.85;;
66272;SDS011;58450;52.150;4.466;2022-09-04T08:18:10;6.90;;;5.13;;
66272;SDS011;58450;52.150;4.466;2022-09-04T08:21:02;8.52;;;5.55;;
66272;SDS011;58450;52.150;4.466;2022-09-04T08:23:57;8.02;;;6.43;;
66272;SDS011;58450;52.150;4.466;2022-09-04T08:26:52;8.02;;;5.40;;
66272;SDS011;58450;52.150;4.466;2022-09-04T08:29:38;7.22;;;4.78;;
66272;SDS011;58450;52.150;4.466;2022-09-04T08:32:33;9.60;;;5.95;;
66272;SDS011;58450;52.150;4.466;2022-09-04T08:35:43;6.85;;;4.68;;
66272;SDS011;58450;52.150;4.466;2022-09-04T08:38:39;7.10;;;5.15;;
66272;SDS011;58450;52.150;4.466;2022-09-04T08:45:20;7.60;;;5.53;;
66272;SDS011;58450;52.150;4.466;2022-09-04T08:48:34;8.70;;;5.85;;
66272;SDS011;58450;52.150;4.466;2022-09-04T08:55:02;8.43;;;5.03;;
66272;SDS011;58450;52.150;4.466;2022-09-04T08:58:03;6.88;;;4.85;;
66272;SDS011;58450;52.150;4.466;2022-09-04T09:05:08;6.00;;;4.47;;
66272;SDS011;58450;52.150;4.466;2022-09-04T09:08:04;6.78;;;4.55;;
66272;SDS011;58450;52.150;4.466;2022-09-04T09:11:12;7.10;;;5.15;;
66272;SDS011;58450;52.150;4.466;2022-09-04T09:14:15;6.53;;;5.15;;
66272;SDS011;58450;52.150;4.466;2022-09-04T09:17:10;7.05;;;4.60;;
66272;SDS011;58450;52.150;4.466;2022-09-04T09:19:45;8.90;;;6.57;;
66272;SDS011;58450;52.150;4.466;2022-09-04T09:22:35;6.68;;;4.80;;
66272;SDS011;58450;52.150;4.466;2022-09-04T09:25:37;7.18;;;4.60;;
66272;SDS011;58450;52.150;4.466;2022-09-04T09:28:22;6.70;;;4.50;;
66272;SDS011;58450;52.150;4.466;2022-09-04T09:31:41;7.20;;;5.32;;
66272;SDS011;58450;52.150;4.466;2022-09-04T09:35:04;7.47;;;5.07;;
66272;SDS011;58450;52.150;4.466;2022-09-04T09:38:33;6.78;;;4.82;;
66272;SDS011;58450;52.150;4.466;2022-09-04T09:41:33;6.45;;;4.68;;
66272;SDS011;58450;52.150;4.466;2022-09-04T09:44:35;7.20;;;4.72;;
66272;SDS011;58450;52.150;4.466;2022-09-04T09:50:59;6.57;;;4.63;;
66272;SDS011;58450;52.150;4.466;2022-09-04T09:57:45;6.77;;;4.03;;
66272;SDS011;58450;52.150;4.466;2022-09-04T10:01:05;6.10;;;3.97;;
66272;SDS011;58450;52.150;4.466;2022-09-04T10:04:04;7.45;;;4.75;;
66272;SDS011;58450;52.150;4.466;2022-09-04T10:07:05;5.22;;;3.58;;
66272;SDS011;58450;52.150;4.466;2022-09-04T10:10:20;6.38;;;4.00;;
66272;SDS011;58450;52.150;4.466;2022-09-04T10:13:28;4.60;;;3.45;;
66272;SDS011;58450;52.150;4.466;2022-09-04T10:16:34;5.60;;;3.08;;
66272;SDS011;58450;52.150;4.466;2022-09-04T10:19:45;4.07;;;2.95;;
66272;SDS011;58450;52.150;4.466;2022-09-04T10:29:28;5.63;;;3.67;;
66272;SDS011;58450;52.150;4.466;2022-09-04T10:32:19;8.77;;;5.82;;
66272;SDS011;58450;52.150;4.466;2022-09-04T10:35:22;10.02;;;5.60;;
66272;SDS011;58450;52.150;4.466;2022-09-04T10:38:16;5.43;;;3.63;;
66272;SDS011;58450;52.150;4.466;2022-09-04T10:41:00;5.07;;;2.88;;
66272;SDS011;58450;52.150;4.466;2022-09-04T10:43:54;5.25;;;3.17;;
66272;SDS011;58450;52.150;4.466;2022-09-04T10:46:55;7.07;;;3.97;;
66272;SDS011;58450;52.150;4.466;2022-09-04T10:50:00;5.63;;;3.17;;
66272;SDS011;58450;52.150;4.466;2022-09-04T10:52:51;6.88;;;4.90;;
66272;SDS011;58450;52.150;4.466;2022-09-04T10:56:09;8.35;;;5.40;;
66272;SDS011;58450;52.150;4.466;2022-09-04T11:02:22;6.50;;;4.05;;
66272;SDS011;58450;52.150;4.466;2022-09-04T11:05:22;5.82;;;4.03;;
66272;SDS011;58450;52.150;4.466;2022-09-04T11:08:12;5.30;;;3.42;;
66272;SDS011;58450;52.150;4.466;2022-09-04T11:11:13;5.80;;;4.20;;
66272;SDS011;58450;52.150;4.466;2022-09-04T11:14:09;5.97;;;3.80;;
66272;SDS011;58450;52.150;4.466;2022-09-04T11:17:12;6.25;;;4.15;;
66272;SDS011;58450;52.150;4.466;2022-09-04T11:23:43;11.85;;;7.00;;
66272;SDS011;58450;52.150;4.466;2022-09-04T11:27:07;11.55;;;7.00;;
66272;SDS011;58450;52.150;4.466;2022-09-04T11:30:27;8.70;;;4.47;;
66272;SDS011;58450;52.150;4.466;2022-09-04T11:40:02;6.03;;;3.42;;
66272;SDS011;58450;52.150;4.466;2022-09-04T11:43:19;10.25;;;6.65;;
66272;SDS011;58450;52.150;4.466;2022-09-04T11:46:32;20.05;;;15.70;;
66272;SDS011;58450;52.150;4.466;2022-09-04T11:49:30;19.52;;;14.55;;
66272;SDS011;58450;52.150;4.466;2022-09-04T11:52:24;17.65;;;14.50;;
66272;SDS011;58450;52.150;4.466;2022-09-04T11:55:23;22.13;;;16.08;;
66272;SDS011;58450;52.150;4.466;2022-09-04T11:58:25;18.17;;;14.13;;
66272;SDS011;58450;52.150;4.466;2022-09-04T12:01:16;17.13;;;13.20;;
66272;SDS011;58450;52.150;4.466;2022-09-04T12:04:10;15.85;;;11.77;;
66272;SDS011;58450;52.150;4.466;2022-09-04T12:06:59;18.65;;;14.18;;
66272;SDS011;58450;52.150;4.466;2022-09-04T12:22:14;9.20;;;6.00;;
66272;SDS011;58450;52.150;4.466;2022-09-04T12:28:53;7.70;;;5.32;;
66272;SDS011;58450;52.150;4.466;2022-09-04T12:32:13;7.35;;;4.93;;
66272;SDS011;58450;52.150;4.466;2022-09-04T12:41:41;7.00;;;5.30;;
66272;SDS011;58450;52.150;4.466;2022-09-04T12:44:26;9.48;;;6.85;;
66272;SDS011;58450;52.150;4.466;2022-09-04T12:47:12;12.38;;;9.55;;
66272;SDS011;58450;52.150;4.466;2022-09-04T12:50:14;11.48;;;7.45;;
66272;SDS011;58450;52.150;4.466;2022-09-04T12:56:17;7.20;;;5.40;;
66272;SDS011;58450;52.150;4.466;2022-09-04T12:59:07;7.93;;;6.30;;
66272;SDS011;58450;52.150;4.466;2022-09-04T13:01:55;6.80;;;4.47;;
66272;SDS011;58450;52.150;4.466;2022-09-04T13:04:34;6.78;;;4.20;;
66272;SDS011;58450;52.150;4.466;2022-09-04T13:07:25;6.40;;;4.03;;
66272;SDS011;58450;52.150;4.466;2022-09-04T13:10:15;6.20;;;4.05;;
66272;SDS011;58450;52.150;4.466;2022-09-04T13:13:02;8.85;;;5.18;;
66272;SDS011;58450;52.150;4.466;2022-09-04T13:15:44;11.25;;;6.95;;
66272;SDS011;58450;52.150;4.466;2022-09-04T13:18:28;8.27;;;6.03;;
66272;SDS011;58450;52.150;4.466;2022-09-04T13:21:16;6.55;;;4.68;;
66272;SDS011;58450;52.150;4.466;2022-09-04T13:24:10;5.95;;;3.78;;
66272;SDS011;58450;52.150;4.466;2022-09-04T13:26:56;5.25;;;3.58;;
66272;SDS011;58450;52.150;4.466;2022-09-04T13:29:45;6.07;;;3.38;;
66272;SDS011;58450;52.150;4.466;2022-09-04T13:35:43;4.80;;;3.58;;
66272;SDS011;58450;52.150;4.466;2022-09-04T13:45:16;4.55;;;3.17;;
66272;SDS011;58450;52.150;4.466;2022-09-04T13:47:48;4.88;;;2.80;;
66272;SDS011;58450;52.150;4.466;2022-09-04T13:50:25;3.92;;;2.65;;
66272;SDS011;58450;52.150;4.466;2022-09-04T13:53:00;4.88;;;2.40;;
66272;SDS011;58450;52.150;4.466;2022-09-04T13:55:41;3.90;;;2.45;;
66272;SDS011;58450;52.150;4.466;2022-09-04T13:58:19;5.20;;;3.03;;
66272;SDS011;58450;52.150;4.466;2022-09-04T14:00:56;4.57;;;2.97;;
66272;SDS011;58450;52.150;4.466;2022-09-04T14:03:32;5.07;;;2.95;;
66272;SDS011;58450;52.150;4.466;2022-09-04T14:06:07;4.80;;;3.40;;
66272;SDS011;58450;52.150;4.466;2022-09-04T14:08:39;5.28;;;3.20;;
66272;SDS011;58450;52.150;4.466;2022-09-04T14:11:22;5.32;;;3.15;;
66272;SDS011;58450;52.150;4.466;2022-09-04T14:14:18;7.32;;;3.60;;
66272;SDS011;58450;52.150;4.466;2022-09-04T14:17:11;5.82;;;4.07;;
66272;SDS011;58450;52.150;4.466;2022-09-04T14:19:42;6.85;;;4.32;;
66272;SDS011;58450;52.150;4.466;2022-09-04T14:22:24;5.25;;;3.63;;
66272;SDS011;58450;52.150;4.466;2022-09-04T14:25:11;4.82;;;3.15;;
66272;SDS011;58450;52.150;4.466;2022-09-04T14:27:48;5.90;;;3.72;;
66272;SDS011;58450;52.150;4.466;2022-09-04T14:30:29;5.32;;;3.53;;
66272;SDS011;58450;52.150;4.466;2022-09-04T14:33:06;5.03;;;4.00;;
66272;SDS011;58450;52.150;4.466;2022-09-04T14:35:51;5.80;;;4.18;;
66272;SDS011;58450;52.150;4.466;2022-09-04T14:38:36;8.05;;;5.57;;
66272;SDS011;58450;52.150;4.466;2022-09-04T14:41:25;4.93;;;3.10;;
66272;SDS011;58450;52.150;4.466;2022-09-04T14:44:10;5.68;;;3.50;;
66272;SDS011;58450;52.150;4.466;2022-09-04T14:46:58;7.18;;;4.72;;
66272;SDS011;58450;52.150;4.466;2022-09-04T14:49:43;6.80;;;4.82;;
66272;SDS011;58450;52.150;4.466;2022-09-04T14:52:17;6.35;;;4.18;;
66272;SDS011;58450;52.150;4.466;2022-09-04T14:54:51;4.78;;;3.25;;
66272;SDS011;58450;52.150;4.466;2022-09-04T14:57:24;5.20;;;3.10;;
66272;SDS011;58450;52.150;4.466;2022-09-04T15:00:02;4.03;;;2.83;;
66272;SDS011;58450;52.150;4.466;2022-09-04T15:02:40;4.13;;;2.67;;
66272;SDS011;58450;52.150;4.466;2022-09-04T15:05:21;4.18;;;2.58;;
66272;SDS011;58450;52.150;4.466;2022-09-04T15:07:54;3.42;;;2.65;;
66272;SDS011;58450;52.150;4.466;2022-09-04T15:10:30;3.13;;;2.50;;
66272;SDS011;58450;52.150;4.466;2022-09-04T15:16:27;3.63;;;2.50;;
66272;SDS011;58450;52.150;4.466;2022-09-04T15:19:26;4.22;;;2.50;;
66272;SDS011;58450;52.150;4.466;2022-09-04T15:22:11;4.10;;;2.83;;
66272;SDS011;58450;52.150;4.466;2022-09-04T15:24:49;5.03;;;3.03;;
66272;SDS011;58450;52.150;4.466;2022-09-04T15:27:29;4.10;;;3.05;;
66272;SDS011;58450;52.150;4.466;2022-09-04T15:30:10;4.15;;;2.90;;
66272;SDS011;58450;52.150;4.466;2022-09-04T15:32:46;4.95;;;3.00;;
66272;SDS011;58450;52.150;4.466;2022-09-04T15:35:28;5.82;;;3.17;;
66272;SDS011;58450;52.150;4.466;2022-09-04T15:38:05;3.60;;;2.92;;
66272;SDS011;58450;52.150;4.466;2022-09-04T15:40:47;5.57;;;3.30;;
66272;SDS011;58450;52.150;4.466;2022-09-04T15:43:28;4.88;;;3.00;;
66272;SDS011;58450;52.150;4.466;2022-09-04T15:46:05;4.72;;;3.15;;
66272;SDS011;58450;52.150;4.466;2022-09-04T15:48:48;4.30;;;3.00;;
66272;SDS011;58450;52.150;4.466;2022-09-04T15:51:27;3.60;;;2.85;;
66272;SDS011;58450;52.150;4.466;2022-09-04T15:54:10;4.07;;;2.95;;
66272;SDS011;58450;52.150;4.466;2022-09-04T15:56:54;4.85;;;3.40;;
66272;SDS011;58450;52.150;4.466;2022-09-04T15:59:34;4.93;;;3.10;;
66272;SDS011;58450;52.150;4.466;2022-09-04T16:02:27;4.32;;;3.20;;
66272;SDS011;58450;52.150;4.466;2022-09-04T16:05:09;3.78;;;2.83;;
66272;SDS011;58450;52.150;4.466;2022-09-04T16:07:45;5.05;;;3.10;;
66272;SDS011;58450;52.150;4.466;2022-09-04T16:10:40;5.57;;;3.40;;
66272;SDS011;58450;52.150;4.466;2022-09-04T16:16:22;4.70;;;3.55;;
66272;SDS011;58450;52.150;4.466;2022-09-04T16:18:58;4.65;;;3.13;;
66272;SDS011;58450;52.150;4.466;2022-09-04T16:21:39;7.03;;;4.53;;
66272;SDS011;58450;52.150;4.466;2022-09-04T16:24:16;10.65;;;5.93;;
66272;SDS011;58450;52.150;4.466;2022-09-04T16:26:52;7.75;;;4.35;;
66272;SDS011;58450;52.150;4.466;2022-09-04T16:29:25;4.88;;;3.60;;
66272;SDS011;58450;52.150;4.466;2022-09-04T16:32:01;4.82;;;3.13;;
66272;SDS011;58450;52.150;4.466;2022-09-04T16:34:36;5.45;;;3.30;;
66272;SDS011;58450;52.150;4.466;2022-09-04T16:37:15;5.10;;;2.97;;
66272;SDS011;58450;52.150;4.466;2022-09-04T16:39:57;5.38;;;2.90;;
66272;SDS011;58450;52.150;4.466;2022-09-04T16:45:15;5.00;;;3.28;;
66272;SDS011;58450;52.150;4.466;2022-09-04T16:47:51;5.60;;;3.58;;
66272;SDS011;58450;52.150;4.466;2022-09-04T16:50:28;6.13;;;3.65;;
66272;SDS011;58450;52.150;4.466;2022-09-04T16:53:08;4.70;;;3.38;;
66272;SDS011;58450;52.150;4.466;2022-09-04T16:55:40;5.50;;;3.47;;
66272;SDS011;58450;52.150;4.466;2022-09-04T16:58:37;6.30;;;3.63;;
66272;SDS011;58450;52.150;4.466;2022-09-04T17:01:18;5.03;;;3.55;;
66272;SDS011;58450;52.150;4.466;2022-09-04T17:03:56;5.63;;;3.80;;
66272;SDS011;58450;52.150;4.466;2022-09-04T17:06:47;5.88;;;4.13;;
66272;SDS011;58450;52.150;4.466;2022-09-04T17:09:42;6.78;;;4.68;;
66272;SDS011;58450;52.150;4.466;2022-09-04T17:12:21;6.45;;;4.43;;
66272;SDS011;58450;52.150;4.466;2022-09-04T17:15:09;6.45;;;4.07;;
66272;SDS011;58450;52.150;4.466;2022-09-04T17:17:50;6.45;;;4.10;;
66272;SDS011;58450;52.150;4.466;2022-09-04T17:20:22;7.78;;;4.28;;
66272;SDS011;58450;52.150;4.466;2022-09-04T17:22:59;6.32;;;4.07;;
66272;SDS011;58450;52.150;4.466;2022-09-04T17:25:43;6.35;;;4.22;;
66272;SDS011;58450;52.150;4.466;2022-09-04T17:31:20;7.13;;;4.68;;
66272;SDS011;58450;52.150;4.466;2022-09-04T17:33:58;6.65;;;4.40;;
66272;SDS011;58450;52.150;4.466;2022-09-04T17:36:38;6.13;;;4.22;;
66272;SDS011;58450;52.150;4.466;2022-09-04T17:39:16;5.88;;;3.85;;
66272;SDS011;58450;52.150;4.466;2022-09-04T17:41:53;5.10;;;4.07;;
66272;SDS011;58450;52.150;4.466;2022-09-04T17:44:32;6.00;;;4.22;;
66272;SDS011;58450;52.150;4.466;2022-09-04T17:47:16;5.97;;;4.38;;
66272;SDS011;58450;52.150;4.466;2022-09-04T17:49:56;7.15;;;4.20;;
66272;SDS011;58450;52.150;4.466;2022-09-04T17:52:26;7.57;;;4.63;;
66272;SDS011;58450;52.150;4.466;2022-09-04T17:54:59;7.20;;;5.10;;
66272;SDS011;58450;52.150;4.466;2022-09-04T17:57:41;6.53;;;4.57;;
66272;SDS011;58450;52.150;4.466;2022-09-04T18:00:20;7.68;;;5.82;;
66272;SDS011;58450;52.150;4.466;2022-09-04T18:02:56;7.53;;;5.60;;
66272;SDS011;58450;52.150;4.466;2022-09-04T18:05:31;8.15;;;5.22;;
66272;SDS011;58450;52.150;4.466;2022-09-04T18:08:05;7.90;;;5.63;;
66272;SDS011;58450;52.150;4.466;2022-09-04T18:10:47;6.80;;;5.25;;
66272;SDS011;58450;52.150;4.466;2022-09-04T18:13:22;7.85;;;5.75;;
66272;SDS011;58450;52.150;4.466;2022-09-04T18:16:03;8.27;;;6.13;;
66272;SDS011;58450;52.150;4.466;2022-09-04T18:18:51;8.55;;;6.40;;
66272;SDS011;58450;52.150;4.466;2022-09-04T18:21:38;9.00;;;6.78;;
66272;SDS011;58450;52.150;4.466;2022-09-04T18:24:14;8.93;;;6.57;;
66272;SDS011;58450;52.150;4.466;2022-09-04T18:26:48;8.65;;;6.50;;
66272;SDS011;58450;52.150;4.466;2022-09-04T18:29:30;9.85;;;6.85;;
66272;SDS011;58450;52.150;4.466;2022-09-04T18:32:10;10.32;;;6.68;;
66272;SDS011;58450;52.150;4.466;2022-09-04T18:34:51;8.98;;;6.88;;
66272;SDS011;58450;52.150;4.466;2022-09-04T18:37:30;9.65;;;6.63;;
66272;SDS011;58450;52.150;4.466;2022-09-04T18:40:08;7.93;;;5.97;;
66272;SDS011;58450;52.150;4.466;2022-09-04T18:42:44;8.65;;;6.43;;
66272;SDS011;58450;52.150;4.466;2022-09-04T18:45:21;8.82;;;6.50;;